Time;durP1;ratioP1;P1;durP2;ratioP2;P2;SDS_P1;SDS_P2;PMS_P1;PMS_P2;Temp;Humidity;BMP_temperature;BMP_pressure;BME280_temperature;BME280_humidity;BME280_pressure;Samples;Min_cycle;Max_cycle;Signal;HPM_P1;HPM_P2
2022/08/15 00:00:31;;;;;;;;;30.75;30.75;;;;;27.63;45.73;98542.03;5064492;28;8968;-67
2022/08/15 00:03:06;;;;;;;;;32.00;31.50;;;;;27.43;45.86;98547.31;5066119;28;8846;-65
2022/08/15 00:05:40;;;;;;;;;29.50;27.50;;;;;27.61;45.74;98548.34;5066431;28;8870;-65
2022/08/15 00:08:10;;;;;;;;;30.25;29.50;;;;;27.58;45.79;98550.44;5066776;28;8861;-64
2022/08/15 00:11:05;;;;;;;;;31.00;29.00;;;;;27.70;45.56;98552.06;5070553;28;8892;-65
2022/08/15 00:13:52;;;;;;;;;30.00;29.25;;;;;27.60;45.52;98553.88;5070682;28;8860;-66
2022/08/15 00:16:32;;;;;;;;;33.00;31.25;;;;;27.57;45.49;98549.63;5069191;28;8964;-67
2022/08/15 00:19:03;;;;;;;;;27.50;26.25;;;;;27.56;45.55;98553.28;5070363;28;8850;-65
2022/08/15 00:21:32;;;;;;;;;26.50;25.75;;;;;27.57;45.42;98552.28;5069921;28;8901;-64
2022/08/15 00:24:02;;;;;;;;;31.50;29.75;;;;;27.58;45.42;98554.00;5070366;28;8858;-68
2022/08/15 00:26:34;;;;;;;;;29.00;26.25;;;;;27.70;45.23;98553.91;5070364;28;8858;-66
2022/08/15 00:29:25;;;;;;;;;32.00;31.00;;;;;27.74;44.84;98544.63;5102799;28;8858;-65
2022/08/15 00:32:08;;;;;;;;;28.25;27.00;;;;;27.73;44.81;98538.44;5070544;28;8940;-67
2022/08/15 00:34:56;;;;;;;;;30.00;29.25;;;;;27.76;44.97;98540.81;5070200;28;8866;-65
2022/08/15 00:37:26;;;;;;;;;34.75;31.75;;;;;27.68;44.84;98545.16;5070399;28;8826;-65
2022/08/15 00:39:54;;;;;;;;;28.25;28.00;;;;;27.71;44.81;98548.44;5078908;28;8897;-65
2022/08/15 00:42:26;;;;;;;;;34.25;31.75;;;;;27.71;45.12;98548.44;5055583;28;8867;-65
2022/08/15 00:44:59;;;;;;;;;29.60;28.60;;;;;27.77;44.93;98544.38;5088797;28;8828;-63
2022/08/15 00:48:41;;;;;;;;;29.75;28.75;;;;;27.74;44.76;98537.44;5090210;28;8835;-67
2022/08/15 00:50:38;;;;;;;;;30.25;29.25;;;;;27.74;44.72;98541.94;5078675;28;8854;-65
2022/08/15 00:53:11;;;;;;;;;31.75;31.00;;;;;27.75;44.76;98540.94;5085271;28;8950;-65
2022/08/15 00:55:43;;;;;;;;;32.75;31.00;;;;;27.86;44.64;98543.53;5085143;28;8847;-64
2022/08/15 00:58:17;;;;;;;;;31.25;30.75;;;;;27.82;44.76;98544.78;5069575;28;9001;-67
2022/08/15 01:01:08;;;;;;;;;34.00;32.25;;;;;27.86;44.63;98545.38;5069460;28;9730;-65
2022/08/15 01:03:41;;;;;;;;;27.20;27.00;;;;;27.88;44.63;98548.75;5068108;28;8850;-65
2022/08/15 01:06:25;;;;;;;;;27.00;24.00;;;;;27.85;44.41;98541.84;5075799;28;8915;-69
2022/08/15 01:09:01;;;;;;;;;34.25;31.00;;;;;27.86;44.59;98545.38;5105302;28;8970;-67
2022/08/15 01:11:45;;;;;;;;;31.00;27.00;;;;;27.81;44.46;98535.91;5104887;28;8864;-67
2022/08/15 01:14:15;;;;;;;;;28.80;28.80;;;;;27.83;44.57;98543.81;5102961;28;8847;-64
2022/08/15 01:17:07;;;;;;;;;30.00;28.00;;;;;27.82;44.51;98539.44;5069304;28;8854;-65
2022/08/15 01:19:44;;;;;;;;;29.75;28.75;;;;;27.65;45.14;98540.06;5068831;28;8972;-68
2022/08/15 01:22:32;;;;;;;;;32.20;29.80;;;;;27.89;44.59;98534.41;5098926;27;8823;-65
2022/08/15 01:25:07;;;;;;;;;32.75;30.75;;;;;27.77;44.86;98528.28;5053404;28;8946;-64
2022/08/15 01:28:02;;;;;;;;;34.75;31.50;;;;;27.73;45.00;98534.88;5087892;28;8984;-63
2022/08/15 01:30:37;;;;;;;;;34.00;32.00;;;;;27.44;45.32;98545.47;5080741;28;8935;-65
2022/08/15 01:33:28;;;;;;;;;29.00;29.00;;;;;27.49;45.26;98541.41;5069073;28;8943;-66
2022/08/15 01:35:58;;;;;;;;;31.75;31.50;;;;;27.44;45.07;98540.94;5083936;28;8878;-66
2022/08/15 01:38:32;;;;;;;;;34.00;31.75;;;;;27.18;45.97;98548.50;5068661;28;8861;-69
2022/08/15 01:41:30;;;;;;;;;34.50;32.50;;;;;27.47;45.34;98539.81;5055528;28;8831;-65
2022/08/15 01:44:14;;;;;;;;;31.00;29.20;;;;;27.49;45.26;98540.56;5066173;28;8957;-67
2022/08/15 01:47:06;;;;;;;;;35.25;32.25;;;;;27.47;45.41;98539.81;5049126;28;8858;-64
2022/08/15 01:49:50;;;;;;;;;31.25;28.75;;;;;27.41;45.30;98542.06;5049523;28;8868;-68
2022/08/15 01:52:34;;;;;;;;;33.25;32.00;;;;;27.47;45.41;98539.81;5002530;28;8919;-65
2022/08/15 01:55:28;;;;;;;;;32.25;29.25;;;;;27.48;45.29;98537.00;5045647;28;8849;-69
2022/08/15 01:58:05;;;;;;;;;31.20;29.80;;;;;27.54;45.21;98535.63;5045670;28;9022;-64
2022/08/15 02:00:37;;;;;;;;;28.50;27.25;;;;;27.42;45.10;98533.03;5029198;28;8848;-68
2022/08/15 02:03:12;;;;;;;;;28.75;28.75;;;;;27.45;45.41;98534.63;5045692;28;8966;-65
2022/08/15 02:05:52;;;;;;;;;27.75;26.75;;;;;27.41;45.07;98531.34;5045404;28;8856;-65
2022/08/15 02:08:27;;;;;;;;;31.60;29.40;;;;;27.47;44.96;98531.78;5058425;28;8837;-66
2022/08/15 02:11:07;;;;;;;;;31.25;29.75;;;;;27.51;45.05;98533.25;5029190;28;8840;-68
2022/08/15 02:13:54;;;;;;;;;31.60;29.20;;;;;27.52;45.09;98542.97;5067064;28;8865;-63
2022/08/15 02:16:26;;;;;;;;;32.50;31.25;;;;;27.48;45.15;98542.38;5067099;28;8912;-67
2022/08/15 02:18:55;;;;;;;;;31.00;30.40;;;;;27.47;45.32;98546.06;5067255;28;8847;-66
2022/08/15 02:21:29;;;;;;;;;33.00;31.25;;;;;27.52;44.94;98541.13;5084195;28;8876;-68
2022/08/15 02:24:08;;;;;;;;;30.75;29.25;;;;;27.58;44.86;98534.38;5099675;28;8900;-64
2022/08/15 02:26:52;;;;;;;;;32.25;30.50;;;;;27.58;44.90;98534.38;5083388;28;8842;-64
2022/08/15 02:29:25;;;;;;;;;31.25;29.75;;;;;27.66;44.91;98534.59;5068102;28;8870;-65
2022/08/15 02:31:56;;;;;;;;;29.50;28.25;;;;;27.58;44.82;98540.59;5082655;28;8823;-69
2022/08/15 02:34:27;;;;;;;;;28.75;27.50;;;;;27.58;44.61;98542.41;5066440;28;8862;-68
2022/08/15 02:37:18;;;;;;;;;31.50;30.25;;;;;27.60;44.86;98530.59;5083195;28;8858;-66
2022/08/15 02:39:53;;;;;;;;;32.00;30.00;;;;;27.53;44.97;98528.59;5084546;28;8858;-66
2022/08/15 02:42:42;;;;;;;;;32.20;29.60;;;;;27.55;44.76;98535.50;5103332;28;8892;-66
2022/08/15 02:45:17;;;;;;;;;30.40;29.40;;;;;27.55;44.85;98532.00;5120270;27;8863;-66
2022/08/15 02:47:46;;;;;;;;;30.60;29.60;;;;;27.55;44.67;98537.34;5103377;28;9652;-64
2022/08/15 02:50:21;;;;;;;;;37.25;33.50;;;;;27.32;45.02;98537.50;5036001;28;9544;-68
2022/08/15 02:52:50;;;;;;;;;30.80;29.80;;;;;27.40;45.06;98543.03;5103334;28;8860;-66
2022/08/15 02:55:22;;;;;;;;;31.60;29.40;;;;;27.47;44.78;98539.81;5086290;28;8863;-68
2022/08/15 02:57:58;;;;;;;;;33.75;31.25;;;;;27.47;45.12;98546.06;5084966;28;8867;-69
2022/08/15 03:00:36;;;;;;;;;31.00;30.00;;;;;27.47;45.07;98546.06;5055491;28;8957;-66
2022/08/15 03:03:11;;;;;;;;;32.60;30.80;;;;;27.48;45.04;98539.69;5086057;28;8867;-65
2022/08/15 03:05:49;;;;;;;;;53.00;43.75;;;;;27.49;44.96;98541.41;5086080;28;8990;-68
2022/08/15 03:08:23;;;;;;;;;40.25;35.75;;;;;27.35;44.97;98536.38;5085987;28;8827;-69
2022/08/15 03:10:53;;;;;;;;;34.25;32.50;;;;;27.41;45.00;98544.75;5086001;28;8951;-67
2022/08/15 03:13:27;;;;;;;;;33.50;28.00;;;;;27.43;45.03;98547.31;5086171;28;8851;-66
2022/08/15 03:16:10;;;;;;;;;30.00;27.40;;;;;27.44;45.03;98551.66;5084590;28;8851;-65
2022/08/15 03:18:49;;;;;;;;;33.50;31.00;;;;;27.43;44.85;98555.34;5087230;28;8918;-66
2022/08/15 03:21:20;;;;;;;;;31.50;30.75;;;;;27.45;44.81;98557.84;5120049;28;8948;-67
2022/08/15 03:23:52;;;;;;;;;31.00;30.00;;;;;27.46;44.88;98547.00;5087426;28;8847;-69
2022/08/15 03:26:25;;;;;;;;;32.25;30.25;;;;;27.49;44.82;98553.97;5068775;28;8847;-65
2022/08/15 03:29:18;;;;;;;;;38.60;32.20;;;;;27.47;44.86;98551.41;5099536;28;8870;-65
2022/08/15 03:31:53;;;;;;;;;35.50;30.50;;;;;27.54;44.97;98557.06;5032312;28;8842;-69
2022/08/15 03:34:26;;;;;;;;;31.75;29.75;;;;;27.50;44.64;98559.16;5082057;28;8858;-65
2022/08/15 03:36:58;;;;;;;;;30.00;30.00;;;;;27.49;44.75;98559.31;5065819;28;8858;-67
2022/08/15 03:39:29;;;;;;;;;29.00;29.00;;;;;27.54;44.62;98562.41;5082131;28;8846;-67
2022/08/15 03:41:59;;;;;;;;;33.50;31.50;;;;;27.47;44.82;98570.16;5065541;28;8935;-69
2022/08/15 03:44:28;;;;;;;;;27.40;25.20;;;;;27.47;44.52;98559.44;5102847;28;8955;-65
2022/08/15 03:47:03;;;;;;;;;29.00;27.25;;;;;27.54;44.47;98567.78;5086396;28;8877;-64
2022/08/15 03:49:36;;;;;;;;;28.80;28.80;;;;;27.57;44.59;98568.38;5103374;28;8854;-64
2022/08/15 03:52:25;;;;;;;;;33.00;32.00;;;;;27.60;44.26;98562.75;5069285;28;8912;-66
2022/08/15 03:55:06;;;;;;;;;31.00;30.80;;;;;27.47;44.73;98564.78;5070783;28;8911;-65
2022/08/15 03:57:45;;;;;;;;;34.00;29.40;;;;;27.43;44.68;98568.72;5086345;28;8881;-64
2022/08/15 04:00:38;;;;;;;;;68.25;55.25;;;;;27.48;44.54;98560.28;5086466;28;8977;-66
2022/08/15 04:03:11;;;;;;;;;33.50;31.00;;;;;27.47;44.59;98559.44;5069876;28;8868;-65
2022/08/15 04:05:42;;;;;;;;;34.50;31.00;;;;;27.29;44.62;98564.53;5077122;28;8878;-65
2022/08/15 04:08:15;;;;;;;;;35.50;32.00;;;;;27.37;44.87;98559.38;5106351;28;8848;-68
2022/08/15 04:11:05;;;;;;;;;32.50;29.00;;;;;27.44;44.64;98558.84;5106463;28;8843;-67
2022/08/15 04:13:39;;;;;;;;;33.50;31.25;;;;;27.51;44.48;98566.22;5055537;28;8852;-65
2022/08/15 04:16:14;;;;;;;;;35.75;33.50;;;;;27.49;44.64;98565.50;5088956;28;8888;-65
2022/08/15 04:19:05;;;;;;;;;32.00;30.75;;;;;27.57;44.39;98565.69;5096687;28;8850;-66
2022/08/15 04:21:40;;;;;;;;;33.75;31.75;;;;;27.58;44.42;98570.06;5029368;28;8924;-64
2022/08/15 04:24:21;;;;;;;;;38.00;34.00;;;;;27.66;44.38;98566.72;5105809;28;8835;-67
2022/08/15 04:26:56;;;;;;;;;32.00;30.25;;;;;27.68;44.41;98575.47;5088410;28;8859;-69
2022/08/15 04:29:29;;;;;;;;;31.50;31.00;;;;;27.71;44.28;98571.66;5089050;28;8863;-66
2022/08/15 04:32:00;;;;;;;;;35.00;33.25;;;;;27.77;44.08;98563.13;5105876;28;8840;-66
2022/08/15 04:34:30;;;;;;;;;38.50;33.75;;;;;27.84;44.00;98564.25;5055762;28;8867;-67
2022/08/15 04:37:20;;;;;;;;;34.50;31.25;;;;;27.94;43.57;98569.69;5071956;28;8860;-67
2022/08/15 04:39:53;;;;;;;;;32.50;31.00;;;;;27.97;43.46;98567.56;5056071;28;8856;-65
2022/08/15 04:42:24;;;;;;;;;31.50;29.75;;;;;28.03;43.47;98570.72;5088142;28;8898;-65
2022/08/15 04:44:53;;;;;;;;;31.25;30.00;;;;;28.15;43.18;98573.16;5088702;28;8886;-68
2022/08/15 04:47:23;;;;;;;;;25.80;25.80;;;;;28.18;43.22;98572.03;5084403;28;9608;-70
2022/08/15 04:50:06;;;;;;;;;32.00;27.75;;;;;28.35;43.02;98570.50;5080356;28;8851;-68
2022/08/15 04:52:43;;;;;;;;;30.00;30.00;;;;;28.54;42.79;98561.69;5081819;28;8942;-66
2022/08/15 04:55:15;;;;;;;;;32.00;31.40;;;;;28.45;42.65;98574.06;5082916;28;8868;-68
2022/08/15 04:57:45;;;;;;;;;32.50;31.75;;;;;28.53;42.43;98576.09;5069046;28;8940;-65
2022/08/15 05:00:27;;;;;;;;;33.75;31.00;;;;;28.50;42.84;98579.00;5084654;28;8960;-66
2022/08/15 05:03:23;;;;;;;;;32.40;30.60;;;;;28.67;42.35;98581.03;5079708;28;9679;-67
2022/08/15 05:06:00;;;;;;;;;32.20;28.80;;;;;28.74;41.96;98579.50;5084256;28;8842;-68
2022/08/15 05:08:33;;;;;;;;;33.25;31.75;;;;;28.74;42.24;98579.50;5069272;28;8854;-64
2022/08/15 05:11:14;;;;;;;;;29.50;29.25;;;;;28.82;42.13;98581.47;5084417;28;8963;-67
2022/08/15 05:13:46;;;;;;;;;35.25;32.25;;;;;28.54;42.56;98585.81;5120543;27;8854;-67
2022/08/15 05:16:25;;;;;;;;;31.00;30.40;;;;;28.79;42.06;98581.78;5104942;28;8847;-67
2022/08/15 05:19:05;;;;;;;;;33.50;31.25;;;;;29.02;41.31;98576.09;5104808;28;8844;-68
2022/08/15 05:21:38;;;;;;;;;32.00;28.75;;;;;28.92;41.88;98576.09;5114697;27;8846;-65
2022/08/15 05:24:15;;;;;;;;;35.25;30.00;;;;;28.92;41.83;98568.91;5067351;28;8853;-66
2022/08/15 05:26:56;;;;;;;;;32.25;30.50;;;;;28.96;41.85;98575.69;5067404;28;8858;-65
2022/08/15 05:29:27;;;;;;;;;28.50;27.75;;;;;29.04;41.70;98574.97;5066527;28;8947;-66
2022/08/15 05:31:56;;;;;;;;;30.50;27.00;;;;;28.84;42.18;98579.50;5084201;28;8846;-66
2022/08/15 05:34:26;;;;;;;;;27.50;27.25;;;;;28.85;42.47;98580.38;5066989;28;8900;-67
2022/08/15 05:37:13;;;;;;;;;30.50;28.75;;;;;28.54;42.53;98575.09;5067127;28;8854;-67
2022/08/15 05:39:45;;;;;;;;;28.75;28.75;;;;;28.89;41.95;98577.25;5067214;28;8842;-70
2022/08/15 05:42:31;;;;;;;;;32.75;28.75;;;;;28.89;42.17;98571.03;5066833;28;8974;-67
2022/08/15 05:45:16;;;;;;;;;29.00;26.50;;;;;29.25;41.77;98582.06;5066643;28;8846;-72
2022/08/15 05:48:11;;;;;;;;;31.25;29.00;;;;;29.40;41.03;98577.94;5083671;28;8896;-71
2022/08/15 05:51:02;;;;;;;;;28.75;27.75;;;;;29.11;41.75;98581.47;5115839;27;9605;-70
2022/08/15 05:53:43;;;;;;;;;26.75;26.75;;;;;29.49;41.21;98577.06;5104357;28;8952;-69
2022/08/15 05:56:44;;;;;;;;;29.00;27.25;;;;;29.25;41.33;98582.06;5086893;28;9595;-70
2022/08/15 05:59:17;;;;;;;;;29.25;27.25;;;;;29.17;41.36;98572.03;5120271;27;8930;-70
2022/08/15 06:01:55;;;;;;;;;30.00;28.00;;;;;29.47;41.14;98576.38;5065676;28;8848;-73
2022/08/15 06:04:51;;;;;;;;;27.50;25.25;;;;;29.65;40.47;98573.75;5057064;28;8870;-71
2022/08/15 06:07:21;;;;;;;;;34.00;31.00;;;;;29.59;40.44;98579.72;5085331;28;8852;-76
2022/08/15 06:09:57;;;;;;;;;24.40;24.40;;;;;29.99;39.67;98583.16;5081803;28;8836;-73
2022/08/15 06:12:34;;;;;;;;;29.80;26.80;;;;;29.57;40.79;98580.88;5084380;28;8889;-71
2022/08/15 06:15:21;;;;;;;;;31.75;30.75;;;;;29.79;40.11;98587.75;5086462;28;8878;-69
2022/08/15 06:17:58;;;;;;;;;29.50;27.75;;;;;29.96;39.61;98580.75;5101237;28;8966;-71
2022/08/15 06:20:36;;;;;;;;;27.25;27.25;;;;;29.74;39.75;98580.97;5086009;28;8835;-69
2022/08/15 06:23:31;;;;;;;;;27.75;27.75;;;;;30.28;39.46;98577.59;5086835;28;8844;-69
2022/08/15 06:26:21;;;;;;;;;26.25;25.75;;;;;30.25;38.81;98580.63;5085533;28;8867;-75
2022/08/15 06:29:07;;;;;;;;;25.25;25.00;;;;;30.55;38.93;98581.28;5085996;28;8840;-71
2022/08/15 06:31:39;;;;;;;;;27.00;26.75;;;;;30.20;38.90;98581.06;5085952;28;8882;-69
2022/08/15 06:34:25;;;;;;;;;28.25;28.00;;;;;30.39;38.56;98593.56;5085072;28;8859;-74
2022/08/15 06:37:22;;;;;;;;;24.00;24.00;;;;;30.11;39.03;98584.63;5069778;28;8974;-71
2022/08/15 06:40:11;;;;;;;;;26.00;25.50;;;;;30.36;39.42;98593.91;5084983;28;9625;-71
2022/08/15 06:42:58;;;;;;;;;25.40;23.80;;;;;30.42;39.07;98589.75;5080816;28;8893;-72
2022/08/15 06:45:50;;;;;;;;;28.75;27.50;;;;;30.54;38.31;98593.91;5087609;28;8863;-71
2022/08/15 06:48:26;;;;;;;;;30.00;29.75;;;;;30.76;38.43;98599.88;5082443;28;8851;-70
2022/08/15 06:51:18;;;;;;;;;31.00;29.75;;;;;31.07;38.12;98609.25;5069711;28;8861;-69
2022/08/15 06:53:54;;;;;;;;;32.00;28.25;;;;;30.71;38.50;98601.16;5100048;28;8862;-73
2022/08/15 06:56:31;;;;;;;;;29.75;28.50;;;;;31.18;37.37;98602.78;5070535;28;8856;-73
2022/08/15 06:59:17;;;;;;;;;20.75;18.25;;;;;30.88;37.64;98604.00;5085400;28;8885;-73
2022/08/15 07:02:20;;;;;;;;;26.25;25.75;;;;;30.27;38.72;98609.03;5081623;28;8840;-74
2022/08/15 07:05:04;;;;;;;;;32.50;29.00;;;;;30.59;38.22;98609.63;5085773;28;8836;-73
2022/08/15 07:07:41;;;;;;;;;27.75;27.75;;;;;31.02;37.70;98616.09;5085928;28;8848;-75
2022/08/15 07:10:17;;;;;;;;;28.00;26.50;;;;;31.06;37.34;98618.34;5085512;28;8844;-73
2022/08/15 07:12:55;;;;;;;;;28.00;27.25;;;;;31.03;37.29;98615.13;5085185;28;8879;-74
2022/08/15 07:15:36;;;;;;;;;28.50;26.50;;;;;31.32;36.83;98616.72;5085590;28;8866;-74
2022/08/15 07:18:11;;;;;;;;;24.50;24.25;;;;;31.40;36.55;98614.94;5085095;28;8871;-74
2022/08/15 07:20:43;;;;;;;;;31.00;29.00;;;;;31.41;36.39;98616.59;5087483;28;8835;-76
2022/08/15 07:23:17;;;;;;;;;28.25;27.50;;;;;31.27;36.73;98618.03;5031261;28;8878;-77
2022/08/15 07:25:49;;;;;;;;;27.50;27.00;;;;;31.38;37.04;98608.84;5065811;28;8958;-74
2022/08/15 07:28:23;;;;;;;;;25.75;22.25;;;;;31.32;37.05;98614.84;5047385;28;8964;-75
2022/08/15 07:31:08;;;;;;;;;26.75;25.25;;;;;31.14;37.01;98617.59;5081633;28;8881;-77
2022/08/15 07:33:45;;;;;;;;;25.00;24.80;;;;;31.34;36.70;98612.84;5086098;28;8886;-74
2022/08/15 07:36:28;;;;;;;;;30.00;28.50;;;;;31.18;37.44;98616.25;5086386;28;9601;-74
2022/08/15 07:39:26;;;;;;;;;27.25;26.50;;;;;31.70;36.19;98612.78;5054081;28;8991;-73
2022/08/15 07:42:15;;;;;;;;;26.00;26.00;;;;;31.79;36.09;98616.38;5084943;28;8852;-75
2022/08/15 07:45:08;;;;;;;;;32.50;29.75;;;;;32.06;35.57;98620.78;5081780;28;8974;-74
2022/08/15 07:47:55;;;;;;;;;26.50;25.00;;;;;32.35;35.44;98616.88;5082210;28;8878;-74
2022/08/15 07:50:32;;;;;;;;;24.60;23.60;;;;;32.23;35.75;98616.28;5084646;28;8895;-75
2022/08/15 07:53:11;;;;;;;;;27.25;26.25;;;;;31.99;36.25;98619.72;5102586;28;8852;-75
2022/08/15 07:56:12;;;;;;;;;25.80;24.40;;;;;32.13;35.66;98613.72;5081822;28;8958;-73
2022/08/15 07:59:13;;;;;;;;;29.50;27.50;;;;;32.19;35.63;98613.09;5041015;28;8868;-73
2022/08/15 08:02:26;;;;;;;;;24.20;23.20;;;;;32.19;35.61;98623.03;5039629;28;8996;-78
2022/08/15 08:05:10;;;;;;;;;26.20;23.80;;;;;32.19;36.16;98620.34;5036365;28;8858;-77
2022/08/15 08:07:58;;;;;;;;;28.00;27.00;;;;;32.61;35.26;98617.66;5013193;28;9798;-75
2022/08/15 08:10:35;;;;;;;;;22.80;21.40;;;;;31.65;36.33;98628.63;5016183;28;8973;-79
2022/08/15 08:13:34;;;;;;;;;26.00;25.20;;;;;32.34;35.01;98618.72;5061793;28;8913;-77
2022/08/15 08:16:20;;;;;;;;;25.80;25.60;;;;;31.68;35.95;98622.88;5069707;28;8923;-77
2022/08/15 08:19:09;;;;;;;;;24.80;24.00;;;;;32.19;35.21;98618.50;5044041;28;8850;-77
2022/08/15 08:21:50;;;;;;;;;27.00;27.00;;;;;32.46;34.57;98616.56;5048009;28;8949;-79
2022/08/15 08:24:28;;;;;;;;;28.75;25.25;;;;;32.35;34.33;98623.09;4990664;28;8868;-78
2022/08/15 08:27:05;;;;;;;;;20.60;20.60;;;;;31.86;36.21;98623.69;4998969;28;8860;-78
2022/08/15 08:29:47;;;;;;;;;23.80;21.60;;;;;32.29;34.56;98620.19;5026327;28;8880;-77
2022/08/15 08:32:31;;;;;;;;;23.00;19.00;;;;;32.58;34.34;98614.44;5014129;28;8883;-77
2022/08/15 08:35:11;;;;;;;;;28.00;25.25;;;;;32.44;34.87;98619.44;5044865;28;8860;-75
2022/08/15 08:37:49;;;;;;;;;30.00;28.25;;;;;32.65;35.01;98615.47;5067615;28;8913;-76
2022/08/15 08:43:38;;;;;;;;;19.75;19.25;;;;;33.06;33.50;98615.50;5064370;28;8886;-78
2022/08/15 08:46:32;;;;;;;;;22.60;20.80;;;;;33.33;33.12;98618.97;5067608;28;8994;-77
2022/08/15 08:49:11;;;;;;;;;23.75;21.75;;;;;32.94;33.01;98623.13;5067734;28;8874;-78
2022/08/15 08:51:56;;;;;;;;;20.40;20.40;;;;;32.92;33.31;98624.31;5031796;28;8858;-78
2022/08/15 08:54:35;;;;;;;;;24.20;22.60;;;;;32.87;33.67;98623.94;4953046;28;8848;-80
2022/08/15 08:57:26;;;;;;;;;22.50;21.50;;;;;32.52;34.12;98617.78;5079077;28;8862;-72
2022/08/15 09:00:01;;;;;;;;;24.20;21.80;;;;;31.73;35.57;98617.03;5088264;28;8860;-73
2022/08/15 09:02:35;;;;;;;;;24.00;22.60;;;;;32.06;35.94;98623.47;5070623;28;8871;-76
2022/08/15 09:05:35;;;;;;;;;24.50;23.75;;;;;32.34;35.18;98621.41;5089776;28;8868;-74
2022/08/15 09:08:24;;;;;;;;;26.50;26.50;;;;;32.12;35.17;98622.84;5089381;28;8863;-74
2022/08/15 09:11:05;;;;;;;;;26.25;24.75;;;;;31.44;36.63;98621.69;5088332;28;8901;-75
2022/08/15 09:13:40;;;;;;;;;29.75;28.25;;;;;31.28;37.05;98614.31;5071007;28;8928;-72
2022/08/15 09:16:15;;;;;;;;;25.25;25.25;;;;;31.63;35.94;98619.84;5088103;28;8917;-72
2022/08/15 09:18:54;;;;;;;;;31.75;30.50;;;;;31.32;36.39;98611.31;5049358;28;8886;-67
2022/08/15 09:21:25;;;;;;;;;22.00;21.20;;;;;31.48;36.11;98612.31;5076728;28;8854;-73
2022/08/15 09:24:06;;;;;;;;;23.20;22.80;;;;;31.35;36.84;98609.16;5089763;28;8882;-80
2022/08/15 09:27:08;;;;;;;;;22.60;22.00;;;;;31.98;35.74;98607.22;5089767;28;8870;-82
2022/08/15 09:29:43;;;;;;;;;28.00;25.75;;;;;31.56;36.39;98611.53;5089030;28;8895;-84
2022/08/15 09:32:41;;;;;;;;;24.50;23.50;;;;;31.66;36.34;98608.72;5089633;28;8935;-81
2022/08/15 09:35:31;;;;;;;;;25.50;24.25;;;;;31.63;36.66;98606.38;5075398;28;8880;-82
2022/08/15 09:38:22;;;;;;;;;24.50;23.75;;;;;31.99;35.20;98603.53;5086740;28;8865;-81
2022/08/15 09:41:26;;;;;;;;;17.75;16.75;;;;;32.34;34.17;98604.38;5088349;28;8874;-83
2022/08/15 09:44:21;;;;;;;;;23.00;21.60;;;;;33.07;33.36;98598.31;5090332;28;8862;-81
2022/08/15 09:47:33;;;;;;;;;20.80;20.40;;;;;33.18;32.77;98599.88;5068169;28;8864;-81
2022/08/15 09:50:38;;;;;;;;;22.25;21.25;;;;;32.35;34.87;98590.72;5068926;28;10087;-79
2022/08/15 09:53:28;;;;;;;;;25.00;22.75;;;;;32.25;34.83;98600.81;5037162;28;8856;-79
2022/08/15 09:56:20;;;;;;;;;21.75;20.75;;;;;32.00;34.72;98600.66;5035211;28;8926;-82
2022/08/15 09:59:05;;;;;;;;;23.40;22.20;;;;;32.73;34.25;98591.19;5027738;28;9002;-81
2022/08/15 10:01:47;;;;;;;;;24.00;22.00;;;;;33.47;33.30;98593.09;5046445;28;8872;-81
2022/08/15 10:05:00;;;;;;;;;23.50;22.50;;;;;32.07;35.03;98597.38;5028002;28;8861;-82
2022/08/15 10:07:45;;;;;;;;;22.00;22.00;;;;;31.89;34.29;98595.56;5047050;28;8939;-82
2022/08/15 10:10:20;;;;;;;;;21.00;19.80;;;;;32.53;33.36;98587.06;4949621;28;8870;-81
2022/08/15 10:13:13;;;;;;;;;28.25;28.00;;;;;32.64;33.01;98590.31;5028492;28;8857;-83
2022/08/15 10:15:45;;;;;;;;;23.00;21.50;;;;;32.45;32.93;98594.13;5028965;28;9057;-81
2022/08/15 10:18:55;;;;;;;;;19.75;19.75;;;;;32.59;32.89;98595.38;5045023;28;8878;-83
2022/08/15 10:21:35;;;;;;;;;20.00;18.75;;;;;33.45;32.29;98590.56;4979087;28;8879;-80
2022/08/15 10:24:21;;;;;;;;;23.75;22.25;;;;;33.64;30.87;98589.38;5046637;28;8847;-83
2022/08/15 10:27:23;;;;;;;;;23.00;20.20;;;;;34.35;30.58;98584.09;5071602;28;8859;-84
2022/08/15 10:30:11;;;;;;;;;22.00;20.75;;;;;33.70;30.10;98580.56;5035998;28;8834;-83
2022/08/15 10:33:01;;;;;;;;;24.50;24.25;;;;;34.04;30.82;98584.84;5027405;28;9381;-81
2022/08/15 10:35:45;;;;;;;;;16.75;16.50;;;;;33.52;31.63;98580.75;5010489;28;8872;-83
2022/08/15 10:38:23;;;;;;;;;23.75;23.00;;;;;32.92;31.80;98587.31;5017793;28;8848;-82
2022/08/15 10:41:15;;;;;;;;;21.80;21.00;;;;;33.18;30.45;98580.97;4993023;28;8982;-82
2022/08/15 10:43:59;;;;;;;;;19.80;19.20;;;;;33.97;29.79;98586.56;5027566;28;8844;-81
2022/08/15 10:46:44;;;;;;;;;18.80;17.80;;;;;33.11;30.34;98588.03;4973113;28;8829;-83
2022/08/15 10:49:25;;;;;;;;;21.60;21.00;;;;;33.31;30.00;98577.72;4949420;28;8861;-72
2022/08/15 10:52:23;;;;;;;;;19.00;18.80;;;;;33.07;30.51;98576.69;4975141;28;8880;-70
2022/08/15 10:55:21;;;;;;;;;21.20;20.20;;;;;34.05;29.48;98572.19;4927468;28;8955;-68
2022/08/15 10:58:18;;;;;;;;;22.50;20.50;;;;;34.45;29.98;98565.75;4985855;28;8873;-69
2022/08/15 11:00:55;;;;;;;;;22.60;19.60;;;;;33.96;29.46;98558.66;4984902;28;8905;-70
2022/08/15 11:03:29;;;;;;;;;20.20;18.40;;;;;34.24;29.54;98557.41;4940355;28;8856;-71
2022/08/15 11:06:20;;;;;;;;;22.75;20.75;;;;;34.54;29.00;98553.84;5011982;28;8850;-72
2022/08/15 11:08:57;;;;;;;;;23.25;21.25;;;;;34.97;28.87;98550.66;5030422;28;8878;-71
2022/08/15 11:11:31;;;;;;;;;19.00;19.00;;;;;35.38;27.38;98552.22;5044385;28;9037;-76
2022/08/15 11:14:11;;;;;;;;;18.20;18.20;;;;;35.59;27.44;98559.63;5044841;28;8868;-71
2022/08/15 11:16:59;;;;;;;;;18.40;17.60;;;;;35.14;27.68;98549.53;5051968;28;8876;-71
2022/08/15 11:19:33;;;;;;;;;18.00;18.00;;;;;35.80;27.59;98546.16;5050922;28;8859;-73
2022/08/15 11:22:31;;;;;;;;;19.00;18.25;;;;;34.87;27.40;98550.09;5078004;28;8858;-74
2022/08/15 11:25:05;;;;;;;;;26.50;26.25;;;;;35.13;27.42;98539.69;5071534;28;8876;-70
2022/08/15 11:27:38;;;;;;;;;20.25;20.00;;;;;34.99;28.14;98543.19;5086942;28;8984;-71
2022/08/15 11:30:11;;;;;;;;;21.25;21.00;;;;;35.80;27.71;98537.19;5087056;28;8851;-73
2022/08/15 11:32:52;;;;;;;;;20.00;20.00;;;;;36.41;26.53;98531.50;5056043;28;8882;-71
2022/08/15 11:35:27;;;;;;;;;21.40;18.60;;;;;36.24;25.82;98528.16;5086529;28;8844;-76
2022/08/15 11:37:58;;;;;;;;;20.25;20.25;;;;;35.73;26.17;98520.84;5087169;28;8929;-73
2022/08/15 11:40:30;;;;;;;;;27.75;27.25;;;;;35.34;27.01;98516.50;5087087;28;8835;-72
2022/08/15 11:43:05;;;;;;;;;21.75;21.75;;;;;35.97;26.03;98522.38;5087224;28;8997;-72
2022/08/15 11:45:45;;;;;;;;;17.40;16.20;;;;;36.67;25.52;98522.81;5083897;28;8870;-73
2022/08/15 11:48:23;;;;;;;;;19.40;18.80;;;;;36.12;25.18;98525.06;5069139;28;8886;-71
2022/08/15 11:51:10;;;;;;;;;24.50;23.50;;;;;37.06;25.22;98525.06;5082419;28;8894;-71
2022/08/15 11:54:19;;;;;;;;;19.25;17.50;;;;;37.70;24.10;98522.41;5086751;28;8863;-73
2022/08/15 11:57:05;;;;;;;;;18.50;18.00;;;;;37.46;23.68;98517.22;5086455;28;8902;-72
2022/08/15 12:00:04;;;;;;;;;20.00;20.00;;;;;37.11;23.99;98515.47;5076153;28;9829;-73
2022/08/15 12:02:37;;;;;;;;;22.25;22.25;;;;;37.91;24.33;98519.59;5084083;28;8847;-71
2022/08/15 12:05:31;;;;;;;;;19.00;18.75;;;;;37.30;23.60;98505.78;5088632;28;8867;-79
2022/08/15 12:08:24;;;;;;;;;20.75;17.50;;;;;37.29;23.35;98510.41;5072248;28;8934;-78
2022/08/15 12:11:07;;;;;;;;;20.00;19.25;;;;;37.79;23.20;98510.31;5085758;28;8842;-80
2022/08/15 12:13:38;;;;;;;;;18.50;18.00;;;;;37.71;22.93;98499.59;5082319;28;8870;-78
2022/08/15 12:16:25;;;;;;;;;17.00;16.00;;;;;36.55;24.33;98502.63;5087714;28;9650;-79
2022/08/15 12:18:58;;;;;;;;;22.50;22.00;;;;;36.21;24.93;98496.81;5074870;28;8853;-79
2022/08/15 12:21:48;;;;;;;;;17.25;16.75;;;;;36.36;24.31;98501.38;5070666;28;8869;-80
2022/08/15 12:24:38;;;;;;;;;16.25;16.25;;;;;35.88;25.02;98489.09;5086006;28;8874;-78
2022/08/15 12:27:16;;;;;;;;;18.25;16.75;;;;;35.85;24.75;98480.50;5070708;28;8883;-81
2022/08/15 12:29:45;;;;;;;;;17.00;15.75;;;;;36.26;24.21;98482.69;5077493;28;8869;-79
2022/08/15 12:32:19;;;;;;;;;15.20;14.20;;;;;36.05;24.46;98483.44;5089371;28;8908;-81